Nykobing, Denmark
Current Conditions -  °F | °C
As of 3:50 AM on Monday 24 Nov 2014 (Local Time) from EKRK Reporting Station
Broken Clouds Broken Clouds  
Wind Chill: 40°   Ceiling: 10000
Heat Index: 46°   Visibility: 4mi
Dew Point: 43°   Wind: 15mph
Humidity: 87%   Direction: 160°SSE
Pressure: 29.88"   Gusts: NA
Location:  55.94°N, 11.65°E
Report Text: EKRK 240250Z AUTO 16013KT 7000NDV BKN100/// BKN120///08/06 Q1012
Loading
Personal Weather Stations






























Interactive Weather Map New forecast layout! Learn more

10-Day Weather Forecast

Advertisements
Track Severe Weather on mobile